Terminal Aerodrome Forecast
Issued by NWS Cleveland, OH

Home | Current Version | Previous Version | Text Only | Print | Product List | Glossary On
Versions: 1 2 3 4 5 6 7 8 9 10 11 12
000
FTUS41 KCLE 230541
TAFYNG
TAF
KYNG 230541Z 2306/2406 15008KT P6SM OVC250
     FM231800 15012G20KT P6SM OVC060
     FM232100 15015G25KT 5SM RA OVC025
     FM240400 19012G20KT P6SM -SHRA OVC025=

USA.gov is the U.S. government's official web portal to all federal, state and local government web resources and services.